createdAt,value
2018-02-19T00:00:52.812Z,27.87
2018-02-19T00:03:21.047Z,32.33
2018-02-19T00:05:48.531Z,30.57
2018-02-19T00:08:15.994Z,32.30
2018-02-19T00:10:44.239Z,25.77
2018-02-19T00:13:11.720Z,26.20
2018-02-19T00:15:39.199Z,26.33
2018-02-19T00:18:07.450Z,29.63
2018-02-19T00:20:34.929Z,25.63
2018-02-19T00:23:03.179Z,23.57
2018-02-19T00:25:30.692Z,19.27
2018-02-19T00:27:58.150Z,29.70
2018-02-19T00:30:25.632Z,24.77
2018-02-19T00:32:53.108Z,22.63
2018-02-19T00:35:20.618Z,28.83
2018-02-19T00:37:48.090Z,24.33
2018-02-19T00:40:15.601Z,27.63
2018-02-19T00:42:43.074Z,27.07
2018-02-19T00:45:11.320Z,26.57
2018-02-19T00:47:38.798Z,27.93
2018-02-19T00:50:07.064Z,28.20
2018-02-19T00:52:34.550Z,32.20
2018-02-19T00:55:02.788Z,28.20
2018-02-19T00:57:30.262Z,33.60
2018-02-19T00:59:57.752Z,26.60
2018-02-19T01:02:25.223Z,27.10
2018-02-19T01:04:52.713Z,26.30
2018-02-19T01:07:20.200Z,38.00
2018-02-19T01:09:47.691Z,25.17
2018-02-19T01:12:15.191Z,31.93
2018-02-19T01:14:42.668Z,33.03
2018-02-19T01:17:10.149Z,25.20
2018-02-19T01:19:38.398Z,26.17
2018-02-19T01:22:05.880Z,25.87
2018-02-19T01:24:34.123Z,29.70
2018-02-19T01:27:01.627Z,29.67
2018-02-19T01:29:29.113Z,30.73
2018-02-19T01:31:56.570Z,30.53
2018-02-19T01:34:24.060Z,32.00
2018-02-19T01:36:51.536Z,37.00
2018-02-19T01:39:19.831Z,30.40
2018-02-19T01:41:48.080Z,33.13
2018-02-19T01:44:15.560Z,29.13
2018-02-19T01:46:43.804Z,31.37
2018-02-19T01:49:11.292Z,28.03
2018-02-19T01:51:38.774Z,23.17
2018-02-19T01:54:06.244Z,37.57
2018-02-19T01:56:33.727Z,31.60
2018-02-19T01:59:01.969Z,27.60
2018-02-19T02:01:29.452Z,26.97
2018-02-19T02:03:56.925Z,29.93
2018-02-19T02:06:24.399Z,30.50
2018-02-19T02:08:51.866Z,25.23
2018-02-19T02:11:20.119Z,29.40
2018-02-19T02:13:47.595Z,30.70
2018-02-19T02:16:15.094Z,31.10
2018-02-19T02:18:42.562Z,23.83
2018-02-19T02:21:10.050Z,31.93
2018-02-19T02:23:37.525Z,29.80
2018-02-19T02:26:05.008Z,29.40
2018-02-19T02:28:33.244Z,24.27
2018-02-19T02:31:00.728Z,31.50
2018-02-19T02:33:29.904Z,26.27
2018-02-19T02:35:57.393Z,35.33
2018-02-19T02:38:25.636Z,26.53
2018-02-19T02:40:53.112Z,26.80
2018-02-19T02:43:20.588Z,33.47
2018-02-19T02:45:48.827Z,30.17
2018-02-19T02:48:16.314Z,25.87
2018-02-19T02:50:44.561Z,27.83
2018-02-19T02:53:12.035Z,29.67
2018-02-19T02:55:39.515Z,26.97
2018-02-19T02:58:07.755Z,23.53
2018-02-19T03:00:35.223Z,29.90
2018-02-19T03:03:02.691Z,25.67
2018-02-19T03:05:30.173Z,27.33
2018-02-19T03:07:58.439Z,26.53
2018-02-19T03:10:26.705Z,25.17
2018-02-19T03:12:54.176Z,29.83
2018-02-19T03:15:22.442Z,29.07
2018-02-19T03:17:49.909Z,25.50
2018-02-19T03:20:18.150Z,31.83
2018-02-19T03:22:45.628Z,29.10
2018-02-19T03:25:13.139Z,24.97
2018-02-19T03:27:40.599Z,28.30
2018-02-19T03:30:08.077Z,25.83
2018-02-19T03:32:35.545Z,27.77
2018-02-19T03:35:03.040Z,27.70
2018-02-19T03:37:31.275Z,23.00
2018-02-19T03:39:58.752Z,24.33
2018-02-19T03:42:26.222Z,25.90
2018-02-19T03:44:54.466Z,24.10
2018-02-19T03:47:21.930Z,26.57
2018-02-19T03:49:49.467Z,26.03
2018-02-19T03:52:16.992Z,23.67
2018-02-19T03:54:45.357Z,21.10
2018-02-19T03:57:13.660Z,27.43
2018-02-19T03:59:41.138Z,24.07
2018-02-19T04:02:08.616Z,23.87
2018-02-19T04:04:36.087Z,26.50
2018-02-19T04:07:03.567Z,22.10
2018-02-19T04:09:32.350Z,25.77
2018-02-19T04:12:00.609Z,23.00
2018-02-19T04:14:28.077Z,25.00
2018-02-19T04:16:56.350Z,22.17
2018-02-19T04:19:23.835Z,20.30
2018-02-19T04:21:52.082Z,23.10
2018-02-19T04:24:19.553Z,25.87
2018-02-19T04:26:47.026Z,21.00
2018-02-19T04:29:15.260Z,26.13
2018-02-19T04:31:42.733Z,21.07
2018-02-19T04:34:10.219Z,23.73
2018-02-19T04:36:38.458Z,21.30
2018-02-19T04:39:05.934Z,21.67
2018-02-19T04:41:33.406Z,20.90
2018-02-19T04:44:01.633Z,26.53
2018-02-19T04:46:34.990Z,27.43
2018-02-19T04:49:02.467Z,19.90
2018-02-19T04:51:29.951Z,20.53
2018-02-19T04:53:58.185Z,24.83
2018-02-19T04:56:25.664Z,29.73
2018-02-19T04:58:53.140Z,22.03
2018-02-19T05:01:20.667Z,18.77
2018-02-19T05:03:48.137Z,26.50
2018-02-19T05:06:15.617Z,28.43
2018-02-19T05:08:43.098Z,27.40
2018-02-19T05:11:10.576Z,27.73
2018-02-19T05:13:38.040Z,22.10
2018-02-19T05:16:06.288Z,24.70
2018-02-19T05:18:33.749Z,22.40
2018-02-19T05:21:01.234Z,24.07
2018-02-19T05:23:29.474Z,23.77
2018-02-19T05:25:56.947Z,23.17
2018-02-19T05:28:24.420Z,26.10
2018-02-19T05:30:52.678Z,18.43
2018-02-19T05:33:20.167Z,25.70
2018-02-19T05:35:48.407Z,23.30
2018-02-19T05:38:15.861Z,25.00
2018-02-19T05:40:43.335Z,30.00
2018-02-19T05:43:10.808Z,26.70
2018-02-19T05:45:39.062Z,26.90
2018-02-19T05:48:06.902Z,27.17
2018-02-19T05:50:34.358Z,25.80
2018-02-19T05:53:01.845Z,26.13
2018-02-19T05:55:29.319Z,27.70
2018-02-19T05:57:57.554Z,26.97
2018-02-19T06:00:25.014Z,23.33
2018-02-19T06:02:52.497Z,22.50
2018-02-19T06:05:19.972Z,27.70
2018-02-19T06:07:48.354Z,21.27
2018-02-19T06:10:16.586Z,23.70
2018-02-19T06:12:44.079Z,22.63
2018-02-19T06:15:12.332Z,25.30
2018-02-19T06:17:39.803Z,23.40
2018-02-19T06:20:07.281Z,26.87
2018-02-19T06:22:35.521Z,24.57
2018-02-19T06:25:03.012Z,26.07
2018-02-19T06:27:31.250Z,25.40
2018-02-19T06:29:58.711Z,25.37
2018-02-19T06:32:26.963Z,25.27
2018-02-19T06:34:54.445Z,23.53
2018-02-19T06:37:21.928Z,23.90
2018-02-19T06:39:49.464Z,20.10
2018-02-19T06:42:16.947Z,27.10
2018-02-19T06:44:45.190Z,27.67
2018-02-19T06:47:12.708Z,30.17
2018-02-19T06:49:40.178Z,22.27
2018-02-19T06:52:07.645Z,24.80
2018-02-19T06:54:35.121Z,23.80
2018-02-19T06:57:02.600Z,25.27
2018-02-19T06:59:30.069Z,26.37
2018-02-19T07:01:57.558Z,29.27
2018-02-19T07:04:25.027Z,28.47
2018-02-19T07:06:52.527Z,25.43
2018-02-19T07:09:20.013Z,25.80
2018-02-19T07:11:47.482Z,23.43
2018-02-19T07:14:15.710Z,23.03
2018-02-19T07:16:43.196Z,28.40
2018-02-19T07:19:11.909Z,24.70
2018-02-19T07:21:39.447Z,27.70
2018-02-19T07:24:06.923Z,24.20
2018-02-19T07:26:35.178Z,30.20
2018-02-19T07:29:03.506Z,29.57
2018-02-19T07:31:30.988Z,23.93
2018-02-19T07:33:58.499Z,32.17
2018-02-19T07:36:26.767Z,27.00
2018-02-19T07:38:54.288Z,27.90
2018-02-19T07:41:21.788Z,27.53
2018-02-19T07:43:50.026Z,29.43
2018-02-19T07:46:17.511Z,28.27
2018-02-19T07:48:45.769Z,27.90
2018-02-19T07:51:13.269Z,25.73
2018-02-19T07:53:40.756Z,28.37
2018-02-19T07:56:08.223Z,28.00
2018-02-19T07:58:35.726Z,26.73
2018-02-19T08:01:03.963Z,29.83
2018-02-19T08:03:31.436Z,25.17
2018-02-19T08:05:58.897Z,32.40
2018-02-19T08:08:26.384Z,23.83
2018-02-19T08:10:54.614Z,32.03
2018-02-19T08:13:22.137Z,27.13
2018-02-19T08:15:49.610Z,21.57
2018-02-19T08:18:17.111Z,22.90
2018-02-19T08:20:44.568Z,22.17
2018-02-19T08:23:12.055Z,25.00
2018-02-19T08:25:39.529Z,25.20
2018-02-19T08:28:07.010Z,27.73
2018-02-19T08:30:34.494Z,22.33
2018-02-19T08:33:01.979Z,22.43
2018-02-19T08:35:30.224Z,27.77
2018-02-19T08:37:57.703Z,23.10
2018-02-19T08:40:25.174Z,23.40
2018-02-19T08:42:53.423Z,23.30
2018-02-19T08:45:20.889Z,24.03
2018-02-19T08:47:48.379Z,23.57
2018-02-19T08:50:15.863Z,23.67
2018-02-19T08:52:43.350Z,20.23
2018-02-19T08:55:10.828Z,24.97
2018-02-19T08:57:38.306Z,25.23
2018-02-19T09:00:05.775Z,23.77
2018-02-19T09:02:33.264Z,25.33
2018-02-19T09:05:00.738Z,23.87
2018-02-19T09:07:28.901Z,23.23
2018-02-19T09:09:56.388Z,21.30
2018-02-19T09:12:23.891Z,23.00
2018-02-19T09:14:51.358Z,24.63
2018-02-19T09:17:18.895Z,20.90
2018-02-19T09:19:46.371Z,22.83
2018-02-19T09:22:13.845Z,20.07
2018-02-19T09:24:41.320Z,21.50
2018-02-19T09:27:08.795Z,22.83
2018-02-19T09:32:10.287Z,22.20
2018-02-19T09:34:38.519Z,24.03
2018-02-19T09:37:06.000Z,31.00
2018-02-19T09:39:33.490Z,24.67
2018-02-19T09:42:00.976Z,23.50
2018-02-19T09:44:28.442Z,22.07
2018-02-19T09:46:55.931Z,22.47
2018-02-19T09:49:23.452Z,25.47
2018-02-19T09:51:50.917Z,20.97
2018-02-19T09:54:18.390Z,21.57
2018-02-19T09:56:45.879Z,24.43
2018-02-19T09:59:14.121Z,20.80
2018-02-19T10:01:41.596Z,19.50
2018-02-19T10:04:09.083Z,22.00
2018-02-19T10:06:37.307Z,25.83
2018-02-19T10:09:04.781Z,21.00
2018-02-19T10:11:32.254Z,21.10
2018-02-19T10:13:59.726Z,22.20
2018-02-19T10:16:27.224Z,22.20
2018-02-19T10:18:54.710Z,18.80
2018-02-19T10:21:22.960Z,24.00
2018-02-19T10:23:50.479Z,20.00
2018-02-19T10:26:18.710Z,21.27
2018-02-19T10:28:46.212Z,23.10
2018-02-19T10:31:13.691Z,18.70
2018-02-19T10:33:41.942Z,20.80
2018-02-19T10:36:09.433Z,20.27
2018-02-19T10:38:36.898Z,20.00
2018-02-19T10:41:04.357Z,19.33
2018-02-19T10:43:31.853Z,22.57
2018-02-19T10:45:59.306Z,17.90
2018-02-19T10:48:26.830Z,25.20
2018-02-19T10:50:55.031Z,19.33
2018-02-19T10:53:22.527Z,17.40
2018-02-19T10:55:49.999Z,22.13
2018-02-19T10:58:18.235Z,24.30
2018-02-19T11:00:45.711Z,18.40
2018-02-19T11:03:13.245Z,26.47
2018-02-19T11:05:40.666Z,16.00
2018-02-19T11:08:08.154Z,18.60
2018-02-19T11:10:35.617Z,18.37
2018-02-19T11:13:03.866Z,20.63
2018-02-19T11:15:31.339Z,18.50
2018-02-19T11:18:04.607Z,20.17
2018-02-19T11:20:32.087Z,23.20
2018-02-19T11:22:59.574Z,23.97
2018-02-19T11:25:27.053Z,18.43
2018-02-19T11:27:54.532Z,19.07
2018-02-19T11:30:22.770Z,28.00
2018-02-19T11:32:50.243Z,19.10
2018-02-19T11:35:18.516Z,19.50
2018-02-19T11:37:45.990Z,20.23
2018-02-19T11:40:13.447Z,16.60
2018-02-19T11:42:41.690Z,20.53
2018-02-19T11:45:09.158Z,19.27
2018-02-19T11:47:36.653Z,16.10
2018-02-19T11:50:04.903Z,21.53
2018-02-19T11:52:32.371Z,18.60
2018-02-19T11:55:00.219Z,18.80
2018-02-19T11:57:28.520Z,20.60
2018-02-19T11:59:56.778Z,21.37
2018-02-19T12:02:25.068Z,23.97
2018-02-19T12:04:52.543Z,23.73
2018-02-19T12:07:20.774Z,25.93
2018-02-19T12:09:48.246Z,27.00
2018-02-19T12:12:15.728Z,21.13
2018-02-19T12:14:43.975Z,23.57
2018-02-19T12:20:04.195Z,22.33
2018-02-19T12:22:31.693Z,22.60
2018-02-19T12:24:59.172Z,21.93
2018-02-19T12:27:26.706Z,22.83
2018-02-19T12:29:54.946Z,23.37
2018-02-19T12:32:22.417Z,22.30
2018-02-19T12:34:49.904Z,22.37
2018-02-19T12:37:17.387Z,22.97
2018-02-19T12:39:44.862Z,25.37
2018-02-19T12:42:12.360Z,24.83
2018-02-19T12:44:39.886Z,23.97
2018-02-19T12:47:07.352Z,23.23
2018-02-19T12:49:34.848Z,25.33
2018-02-19T12:52:03.076Z,23.97
2018-02-19T12:54:30.570Z,23.77
2018-02-19T12:56:58.911Z,21.90
2018-02-19T12:59:26.409Z,23.53
2018-02-19T13:01:54.635Z,24.13
2018-02-19T13:04:22.135Z,27.50
2018-02-19T13:06:49.607Z,23.43
2018-02-19T13:09:17.852Z,26.60
2018-02-19T13:11:45.315Z,28.07
2018-02-19T13:14:12.798Z,22.73
2018-02-19T13:16:41.032Z,22.40
2018-02-19T13:19:08.520Z,23.80
2018-02-19T13:21:36.036Z,20.10
2018-02-19T13:24:03.516Z,25.83
2018-02-19T13:26:30.993Z,21.20
2018-02-19T13:28:58.471Z,21.30
2018-02-19T13:31:26.729Z,22.97
2018-02-19T13:33:54.248Z,22.57
2018-02-19T13:36:22.443Z,21.20
2018-02-19T13:38:49.934Z,24.87
2018-02-19T13:41:18.167Z,23.60
2018-02-19T13:43:45.651Z,22.53
2018-02-19T13:46:13.123Z,24.50
2018-02-19T13:48:40.603Z,17.07
2018-02-19T13:51:08.086Z,21.67
2018-02-19T13:53:35.603Z,21.73
2018-02-19T13:56:03.830Z,20.27
2018-02-19T13:58:31.320Z,18.50
2018-02-19T14:00:59.580Z,24.03
2018-02-19T14:03:27.057Z,19.87
2018-02-19T14:05:54.634Z,22.40
2018-02-19T14:08:22.873Z,21.00
2018-02-19T14:10:50.344Z,23.73
2018-02-19T14:13:17.827Z,22.30
2018-02-19T14:15:46.101Z,23.10
2018-02-19T14:18:13.583Z,21.33
2018-02-19T14:20:41.067Z,27.00
2018-02-19T14:23:08.542Z,21.37
2018-02-19T14:25:36.795Z,24.43
2018-02-19T14:28:04.278Z,21.63
2018-02-19T14:30:31.755Z,21.97
2018-02-19T14:32:59.233Z,24.40
2018-02-19T14:35:27.507Z,27.87
2018-02-19T14:37:55.777Z,24.20
2018-02-19T14:40:23.252Z,24.27
2018-02-19T14:42:51.489Z,24.13
2018-02-19T14:45:18.979Z,25.80
2018-02-19T14:47:48.134Z,26.03
2018-02-19T14:50:15.612Z,26.93
2018-02-19T14:52:43.080Z,25.57
2018-02-19T14:55:10.561Z,24.90
2018-02-19T14:57:38.798Z,27.70
2018-02-19T15:00:06.278Z,22.30
2018-02-19T15:02:34.535Z,23.10
2018-02-19T15:05:02.029Z,25.57
2018-02-19T15:07:30.258Z,22.60
2018-02-19T15:09:57.791Z,25.13
2018-02-19T15:12:25.316Z,21.43
2018-02-19T15:14:52.778Z,23.17
2018-02-19T15:17:21.023Z,22.20
2018-02-19T15:19:48.504Z,23.00
2018-02-19T15:22:15.970Z,21.13
2018-02-19T15:24:44.260Z,22.10
2018-02-19T15:27:12.485Z,22.57
2018-02-19T15:29:39.953Z,24.67
2018-02-19T15:32:07.430Z,23.37
2018-02-19T15:34:34.902Z,23.60
2018-02-19T15:37:03.146Z,23.90
2018-02-19T15:39:31.534Z,23.90
2018-02-19T15:41:59.004Z,24.30
2018-02-19T15:44:26.469Z,25.87
2018-02-19T15:46:55.910Z,23.60
2018-02-19T15:49:23.397Z,26.90
2018-02-19T15:51:50.914Z,26.53
2018-02-19T15:54:18.560Z,21.40
2018-02-19T15:56:46.844Z,22.00
2018-02-19T15:59:15.107Z,23.80
2018-02-19T16:01:43.334Z,26.03
2018-02-19T16:04:10.816Z,27.23
2018-02-19T16:06:38.284Z,24.30
2018-02-19T16:09:05.813Z,31.87
2018-02-19T16:11:33.281Z,27.53
2018-02-19T16:14:00.780Z,22.87
2018-02-19T16:16:29.019Z,29.50
2018-02-19T16:18:56.490Z,22.87
2018-02-19T16:21:23.982Z,26.60
2018-02-19T16:23:51.508Z,26.30
2018-02-19T16:26:18.994Z,24.40
2018-02-19T16:28:47.236Z,23.70
2018-02-19T16:31:14.723Z,32.13
2018-02-19T16:33:42.961Z,25.03
2018-02-19T16:36:10.454Z,27.83
2018-02-19T16:38:37.996Z,32.57
2018-02-19T16:41:05.488Z,30.97
2018-02-19T16:43:32.971Z,34.03
2018-02-19T16:46:00.455Z,31.80
2018-02-19T16:48:27.931Z,29.90
2018-02-19T16:50:55.435Z,33.77
2018-02-19T16:53:22.936Z,31.73
2018-02-19T16:55:50.419Z,32.20
2018-02-19T16:58:17.882Z,30.43
2018-02-19T17:00:46.136Z,34.97
2018-02-19T17:03:13.700Z,29.97
2018-02-19T17:05:41.175Z,30.20
2018-02-19T17:08:08.638Z,27.23
2018-02-19T17:10:36.894Z,29.17
2018-02-19T17:13:04.349Z,28.07
2018-02-19T17:15:31.850Z,31.00
2018-02-19T17:17:59.328Z,25.23
2018-02-19T17:20:26.866Z,28.00
2018-02-19T17:22:54.354Z,24.57
2018-02-19T17:25:21.882Z,26.47
2018-02-19T17:27:49.393Z,25.07
2018-02-19T17:30:16.868Z,25.60
2018-02-19T17:32:44.368Z,25.70
2018-02-19T17:35:11.866Z,25.20
2018-02-19T17:37:39.337Z,24.17
2018-02-19T17:40:06.829Z,26.10
2018-02-19T17:42:35.134Z,32.57
2018-02-19T17:45:02.646Z,24.87
2018-02-19T17:47:30.930Z,26.30
2018-02-19T17:49:59.183Z,25.17
2018-02-19T17:52:26.673Z,23.60
2018-02-19T17:54:54.916Z,29.00
2018-02-19T17:57:22.387Z,24.23
2018-02-19T17:59:49.897Z,26.73
2018-02-19T18:02:17.438Z,28.10
2018-02-19T18:04:44.943Z,25.03
2018-02-19T18:07:12.425Z,25.00
2018-02-19T18:09:39.914Z,28.40
2018-02-19T18:12:07.413Z,24.50
2018-02-19T18:14:35.234Z,33.80
2018-02-19T18:17:03.511Z,22.13
2018-02-19T18:19:30.986Z,28.40
2018-02-19T18:21:58.487Z,22.97
2018-02-19T18:24:26.003Z,27.70
2018-02-19T18:26:53.531Z,29.00
2018-02-19T18:29:21.012Z,31.90
2018-02-19T18:31:48.489Z,27.80
2018-02-19T18:34:15.953Z,24.17
2018-02-19T18:36:43.448Z,31.37
2018-02-19T18:39:11.731Z,29.93
2018-02-19T18:41:39.202Z,24.30
2018-02-19T18:44:07.423Z,26.30
2018-02-19T18:46:35.003Z,27.27
2018-02-19T18:49:03.054Z,30.97
2018-02-19T18:51:30.564Z,30.70
2018-02-19T18:53:58.810Z,32.20
2018-02-19T18:56:26.977Z,30.40
2018-02-19T18:58:54.521Z,29.40
2018-02-19T19:01:22.069Z,31.20
2018-02-19T19:03:51.227Z,32.70
2018-02-19T19:06:19.492Z,21.87
2018-02-19T19:08:58.647Z,24.33
2018-02-19T19:11:26.907Z,27.43
2018-02-19T19:13:54.374Z,30.10
2018-02-19T19:16:22.636Z,27.60
2018-02-19T19:18:50.349Z,30.70
2018-02-19T19:21:17.850Z,28.20
2018-02-19T19:23:46.296Z,35.57
2018-02-19T19:26:13.803Z,30.90
2018-02-19T19:28:41.347Z,27.10
2018-02-19T19:31:08.898Z,27.50
2018-02-19T19:33:37.172Z,53.40
2018-02-19T19:36:04.808Z,30.73
2018-02-19T19:38:32.303Z,34.33
2018-02-19T19:40:59.832Z,31.48
2018-02-19T19:43:27.303Z,30.83
2018-02-19T19:45:54.890Z,33.90
2018-02-19T19:48:22.363Z,27.70
2018-02-19T19:50:49.959Z,28.17
2018-02-19T19:53:17.596Z,29.63
2018-02-19T19:55:45.845Z,29.93
2018-02-19T19:58:13.326Z,26.27
2018-02-19T20:00:41.602Z,36.23
2018-02-19T20:03:09.055Z,30.77
2018-02-19T20:05:37.298Z,30.77
2018-02-19T20:08:04.801Z,29.50
2018-02-19T20:10:33.035Z,30.83
2018-02-19T20:13:00.512Z,31.07
2018-02-19T20:15:27.991Z,35.13
2018-02-19T20:17:56.311Z,32.77
2018-02-19T20:20:23.820Z,32.60
2018-02-19T20:22:52.980Z,35.43
2018-02-19T20:25:21.433Z,37.83
2018-02-19T20:27:48.998Z,32.80
2018-02-19T20:30:16.477Z,35.83
2018-02-19T20:32:43.979Z,30.45
2018-02-19T20:35:12.221Z,39.23
2018-02-19T20:37:39.709Z,40.10
2018-02-19T20:40:07.183Z,30.20
2018-02-19T20:42:35.414Z,33.63
2018-02-19T20:45:02.886Z,34.13
2018-02-19T20:47:30.362Z,30.80
2018-02-19T20:49:58.705Z,32.03
2018-02-19T20:52:26.203Z,33.27
2018-02-19T20:54:54.447Z,30.20
2018-02-19T20:57:21.926Z,30.80
2018-02-19T20:59:49.395Z,27.30
2018-02-19T21:02:16.885Z,33.20
2018-02-19T21:04:44.357Z,30.27
2018-02-19T21:07:11.837Z,30.53
2018-02-19T21:09:39.309Z,33.20
2018-02-19T21:12:06.786Z,32.20
2018-02-19T21:14:34.248Z,34.47
2018-02-19T21:17:05.576Z,30.90
2018-02-19T21:19:33.034Z,38.70
2018-02-19T21:22:00.510Z,42.13
2018-02-19T21:24:28.775Z,41.77
2018-02-19T21:26:56.265Z,45.07
2018-02-19T21:29:23.762Z,37.00
2018-02-19T21:31:51.236Z,37.50
2018-02-19T21:34:18.715Z,33.23
2018-02-19T21:36:46.959Z,39.80
2018-02-19T21:39:14.442Z,38.73
2018-02-19T21:41:41.924Z,36.70
2018-02-19T21:44:09.385Z,34.27
2018-02-19T21:46:36.915Z,39.38
2018-02-19T21:49:05.166Z,36.43
2018-02-19T21:51:32.643Z,36.37
2018-02-19T21:54:00.106Z,34.43
2018-02-19T21:56:28.355Z,37.47
2018-02-19T21:58:55.831Z,37.40
2018-02-19T22:01:24.095Z,36.85
2018-02-19T22:03:51.581Z,37.20
2018-02-19T22:06:19.821Z,40.03
2018-02-19T22:08:47.294Z,38.90
2018-02-19T22:11:14.768Z,37.83
2018-02-19T22:13:42.251Z,40.03
2018-02-19T22:16:09.714Z,37.93
2018-02-19T22:18:37.316Z,41.58
2018-02-19T22:21:04.820Z,45.78
2018-02-19T22:23:33.062Z,51.97
2018-02-19T22:26:00.571Z,41.80
2018-02-19T22:28:28.056Z,36.60
2018-02-19T22:30:55.531Z,42.20
2018-02-19T22:33:23.010Z,46.50
2018-02-19T22:35:50.477Z,45.37
2018-02-19T22:38:18.723Z,41.37
2018-02-19T22:40:46.199Z,43.17
2018-02-19T22:43:13.675Z,43.27
2018-02-19T22:45:41.937Z,46.80
2018-02-19T22:48:09.412Z,45.50
2018-02-19T22:50:37.656Z,44.65
2018-02-19T22:53:05.156Z,43.60
2018-02-19T22:55:32.623Z,49.58
2018-02-19T22:58:00.100Z,49.60
2018-02-19T23:00:27.608Z,44.08
2018-02-19T23:02:55.094Z,44.60
2018-02-19T23:05:22.565Z,48.07
2018-02-19T23:07:50.046Z,40.33
2018-02-19T23:10:17.566Z,35.25
2018-02-19T23:12:45.058Z,39.17
2018-02-19T23:15:12.557Z,39.90
2018-02-19T23:17:40.034Z,37.93
2018-02-19T23:20:08.271Z,40.80
2018-02-19T23:22:35.755Z,38.03
2018-02-19T23:25:03.258Z,43.90
2018-02-19T23:27:30.743Z,38.20
2018-02-19T23:29:58.989Z,42.75
2018-02-19T23:32:26.475Z,37.93
2018-02-19T23:34:54.006Z,31.97
2018-02-19T23:37:21.482Z,37.27
2018-02-19T23:39:48.950Z,40.50
2018-02-19T23:42:16.415Z,33.70
2018-02-19T23:44:43.877Z,34.60
2018-02-19T23:47:11.350Z,37.80
2018-02-19T23:49:38.842Z,40.23
2018-02-19T23:52:06.313Z,41.43
2018-02-19T23:54:34.562Z,38.87
2018-02-19T23:57:02.793Z,34.97
2018-02-19T23:59:30.263Z,37.00
